sensor_id;sensor_type;location;lat;lon;timestamp;pressure;altitude;pressure_sealevel;temperature;humidity
75794;BME280;64418;47.536;19.074;2022-10-26T00:01:12;100810.91;;;12.21;80.00
75794;BME280;64418;47.536;19.074;2022-10-26T00:03:57;100813.19;;;12.17;80.03
75794;BME280;64418;47.536;19.074;2022-10-26T00:06:41;100817.19;;;12.15;80.12
75794;BME280;64418;47.536;19.074;2022-10-26T00:09:28;100813.19;;;12.11;80.23
75794;BME280;64418;47.536;19.074;2022-10-26T00:12:13;100817.38;;;12.06;80.40
75794;BME280;64418;47.536;19.074;2022-10-26T00:14:57;100825.69;;;12.05;80.44
75794;BME280;64418;47.536;19.074;2022-10-26T00:17:43;100825.09;;;12.03;80.52
75794;BME280;64418;47.536;19.074;2022-10-26T00:20:27;100823.81;;;11.99;80.80
75794;BME280;64418;47.536;19.074;2022-10-26T00:23:12;100834.06;;;11.97;80.99
75794;BME280;64418;47.536;19.074;2022-10-26T00:25:56;100836.78;;;11.97;81.09
75794;BME280;64418;47.536;19.074;2022-10-26T00:28:41;100827.56;;;11.98;80.95
75794;BME280;64418;47.536;19.074;2022-10-26T00:31:26;100828.62;;;11.97;81.00
75794;BME280;64418;47.536;19.074;2022-10-26T00:34:12;100823.19;;;11.97;81.09
75794;BME280;64418;47.536;19.074;2022-10-26T00:36:59;100829.84;;;11.94;81.32
75794;BME280;64418;47.536;19.074;2022-10-26T00:39:43;100822.12;;;11.91;81.57
75794;BME280;64418;47.536;19.074;2022-10-26T00:42:30;100821.03;;;11.86;81.78
75794;BME280;64418;47.536;19.074;2022-10-26T00:45:18;100827.31;;;11.80;82.07
75794;BME280;64418;47.536;19.074;2022-10-26T00:48:05;100816.81;;;11.70;82.25
75794;BME280;64418;47.536;19.074;2022-10-26T00:50:53;100818.03;;;11.68;82.51
75794;BME280;64418;47.536;19.074;2022-10-26T00:53:37;100818.44;;;11.65;82.66
75794;BME280;64418;47.536;19.074;2022-10-26T00:56:22;100817.81;;;11.63;82.72
75794;BME280;64418;47.536;19.074;2022-10-26T00:59:09;100815.50;;;11.59;82.82
75794;BME280;64418;47.536;19.074;2022-10-26T01:01:54;100810.47;;;11.56;82.87
75794;BME280;64418;47.536;19.074;2022-10-26T01:04:38;100820.28;;;11.57;82.79
75794;BME280;64418;47.536;19.074;2022-10-26T01:07:25;100814.25;;;11.55;82.67
75794;BME280;64418;47.536;19.074;2022-10-26T01:10:10;100816.31;;;11.53;82.84
75794;BME280;64418;47.536;19.074;2022-10-26T01:12:56;100814.62;;;11.52;82.98
75794;BME280;64418;47.536;19.074;2022-10-26T01:15:50;100820.47;;;11.49;83.26
75794;BME280;64418;47.536;19.074;2022-10-26T01:18:47;100816.47;;;11.45;83.25
75794;BME280;64418;47.536;19.074;2022-10-26T01:21:47;100813.13;;;11.43;83.32
75794;BME280;64418;47.536;19.074;2022-10-26T01:24:49;100812.50;;;11.41;83.38
75794;BME280;64418;47.536;19.074;2022-10-26T01:27:38;100816.25;;;11.40;83.50
75794;BME280;64418;47.536;19.074;2022-10-26T01:30:35;100816.25;;;11.40;83.56
75794;BME280;64418;47.536;19.074;2022-10-26T01:33:30;100803.06;;;11.37;83.89
75794;BME280;64418;47.536;19.074;2022-10-26T01:36:21;100802.44;;;11.35;83.96
75794;BME280;64418;47.536;19.074;2022-10-26T01:39:18;100797.44;;;11.32;84.10
75794;BME280;64418;47.536;19.074;2022-10-26T01:42:06;100796.78;;;11.30;84.09
75794;BME280;64418;47.536;19.074;2022-10-26T01:44:55;100803.66;;;11.26;84.08
75794;BME280;64418;47.536;19.074;2022-10-26T01:47:44;100794.88;;;11.24;84.07
75794;BME280;64418;47.536;19.074;2022-10-26T01:50:31;100799.87;;;11.21;84.17
75794;BME280;64418;47.536;19.074;2022-10-26T01:53:16;100802.78;;;11.19;84.30
75794;BME280;64418;47.536;19.074;2022-10-26T01:56:03;100807.56;;;11.17;84.43
75794;BME280;64418;47.536;19.074;2022-10-26T01:58:59;100800.47;;;11.16;84.44
75794;BME280;64418;47.536;19.074;2022-10-26T02:05:21;100804.88;;;11.17;84.56
75794;BME280;64418;47.536;19.074;2022-10-26T02:08:19;100801.50;;;11.15;84.50
75794;BME280;64418;47.536;19.074;2022-10-26T02:11:11;100800.66;;;11.15;84.37
75794;BME280;64418;47.536;19.074;2022-10-26T02:14:07;100797.72;;;11.09;84.31
75794;BME280;64418;47.536;19.074;2022-10-26T02:16:56;100800.19;;;11.04;84.31
75794;BME280;64418;47.536;19.074;2022-10-26T02:19:44;100789.94;;;11.00;84.29
75794;BME280;64418;47.536;19.074;2022-10-26T02:22:34;100793.69;;;10.99;84.27
75794;BME280;64418;47.536;19.074;2022-10-26T02:25:23;100795.12;;;10.95;84.27
75794;BME280;64418;47.536;19.074;2022-10-26T02:28:13;100797.84;;;10.95;84.18
75794;BME280;64418;47.536;19.074;2022-10-26T02:31:00;100795.50;;;10.92;84.17
75794;BME280;64418;47.536;19.074;2022-10-26T02:33:47;100795.91;;;10.89;84.07
75794;BME280;64418;47.536;19.074;2022-10-26T02:36:35;100798.19;;;10.85;84.08
75794;BME280;64418;47.536;19.074;2022-10-26T02:39:28;100792.91;;;10.77;84.08
75794;BME280;64418;47.536;19.074;2022-10-26T02:42:15;100796.66;;;10.76;84.00
75794;BME280;64418;47.536;19.074;2022-10-26T02:45:03;100792.47;;;10.74;83.91
75794;BME280;64418;47.536;19.074;2022-10-26T02:47:51;100798.28;;;10.71;83.89
75794;BME280;64418;47.536;19.074;2022-10-26T02:50:42;100808.28;;;10.70;84.00
75794;BME280;64418;47.536;19.074;2022-10-26T02:53:33;100807.66;;;10.68;84.25
75794;BME280;64418;47.536;19.074;2022-10-26T02:56:23;100807.84;;;10.67;84.35
75794;BME280;64418;47.536;19.074;2022-10-26T02:59:10;100817.84;;;10.66;84.41
75794;BME280;64418;47.536;19.074;2022-10-26T03:01:56;100818.06;;;10.65;84.54
75794;BME280;64418;47.536;19.074;2022-10-26T03:04:41;100819.91;;;10.64;84.57
75794;BME280;64418;47.536;19.074;2022-10-26T03:07:25;100808.25;;;10.63;84.59
75794;BME280;64418;47.536;19.074;2022-10-26T03:10:10;100808.25;;;10.63;84.40
75794;BME280;64418;47.536;19.074;2022-10-26T03:12:56;100819.25;;;10.62;84.41
75794;BME280;64418;47.536;19.074;2022-10-26T03:15:40;100821.34;;;10.60;84.44
75794;BME280;64418;47.536;19.074;2022-10-26T03:18:25;100828.62;;;10.59;84.47
75794;BME280;64418;47.536;19.074;2022-10-26T03:21:09;100834.44;;;10.56;84.41
75794;BME280;64418;47.536;19.074;2022-10-26T03:23:53;100824.38;;;10.50;84.61
75794;BME280;64418;47.536;19.074;2022-10-26T03:26:38;100829.78;;;10.50;84.59
75794;BME280;64418;47.536;19.074;2022-10-26T03:29:23;100829.16;;;10.48;84.47
75794;BME280;64418;47.536;19.074;2022-10-26T03:32:10;100839.31;;;10.46;84.45
75794;BME280;64418;47.536;19.074;2022-10-26T03:34:55;100833.91;;;10.46;84.55
75794;BME280;64418;47.536;19.074;2022-10-26T03:37:40;100837.69;;;10.45;84.54
75794;BME280;64418;47.536;19.074;2022-10-26T03:40:24;100836.00;;;10.44;84.58
75794;BME280;64418;47.536;19.074;2022-10-26T03:43:08;100839.53;;;10.45;84.48
75794;BME280;64418;47.536;19.074;2022-10-26T03:45:53;100843.09;;;10.45;84.30
75794;BME280;64418;47.536;19.074;2022-10-26T03:48:38;100842.81;;;10.40;84.25
75794;BME280;64418;47.536;19.074;2022-10-26T03:51:22;100836.34;;;10.35;84.45
75794;BME280;64418;47.536;19.074;2022-10-26T03:54:07;100849.66;;;10.36;84.46
75794;BME280;64418;47.536;19.074;2022-10-26T03:56:51;100845.09;;;10.37;85.39
75794;BME280;64418;47.536;19.074;2022-10-26T03:59:35;100855.06;;;10.36;85.44
75794;BME280;64418;47.536;19.074;2022-10-26T04:02:21;100855.28;;;10.35;85.98
75794;BME280;64418;47.536;19.074;2022-10-26T04:05:07;100853.03;;;10.38;85.58
75794;BME280;64418;47.536;19.074;2022-10-26T04:07:52;100850.09;;;10.40;85.51
75794;BME280;64418;47.536;19.074;2022-10-26T04:10:36;100848.06;;;10.42;85.21
75794;BME280;64418;47.536;19.074;2022-10-26T04:13:21;100850.37;;;10.45;85.37
75794;BME280;64418;47.536;19.074;2022-10-26T04:16:09;100857.66;;;10.44;85.21
75794;BME280;64418;47.536;19.074;2022-10-26T04:18:55;100860.56;;;10.43;85.06
75794;BME280;64418;47.536;19.074;2022-10-26T04:21:39;100863.06;;;10.44;85.28
75794;BME280;64418;47.536;19.074;2022-10-26T04:24:24;100862.06;;;10.45;85.16
75794;BME280;64418;47.536;19.074;2022-10-26T04:27:08;100854.56;;;10.47;85.08
75794;BME280;64418;47.536;19.074;2022-10-26T04:29:52;100854.78;;;10.46;84.79
75794;BME280;64418;47.536;19.074;2022-10-26T04:32:36;100854.28;;;10.42;84.47
75794;BME280;64418;47.536;19.074;2022-10-26T04:35:21;100855.53;;;10.40;84.30
75794;BME280;64418;47.536;19.074;2022-10-26T04:38:06;100855.91;;;10.37;84.33
75794;BME280;64418;47.536;19.074;2022-10-26T04:40:50;100857.50;;;10.31;84.23
75794;BME280;64418;47.536;19.074;2022-10-26T04:43:35;100851.88;;;10.26;84.10
75794;BME280;64418;47.536;19.074;2022-10-26T04:46:19;100856.81;;;10.23;84.11
75794;BME280;64418;47.536;19.074;2022-10-26T04:49:04;100866.16;;;10.20;84.14
75794;BME280;64418;47.536;19.074;2022-10-26T04:51:52;100868.41;;;10.17;84.13
75794;BME280;64418;47.536;19.074;2022-10-26T04:54:38;100860.84;;;10.12;84.29
75794;BME280;64418;47.536;19.074;2022-10-26T04:57:22;100857.09;;;10.13;84.32
75794;BME280;64418;47.536;19.074;2022-10-26T05:00:08;100863.56;;;10.12;84.29
75794;BME280;64418;47.536;19.074;2022-10-26T05:02:58;100861.66;;;10.12;84.25
75794;BME280;64418;47.536;19.074;2022-10-26T05:05:43;100858.50;;;10.09;84.34
75794;BME280;64418;47.536;19.074;2022-10-26T05:08:33;100856.84;;;10.08;84.36
75794;BME280;64418;47.536;19.074;2022-10-26T05:11:21;100857.97;;;9.99;84.73
75794;BME280;64418;47.536;19.074;2022-10-26T05:14:06;100869.19;;;9.96;84.93
75794;BME280;64418;47.536;19.074;2022-10-26T05:16:51;100861.53;;;9.99;84.86
75794;BME280;64418;47.536;19.074;2022-10-26T05:19:35;100861.16;;;10.02;84.67
75794;BME280;64418;47.536;19.074;2022-10-26T05:22:19;100870.28;;;10.01;84.47
75794;BME280;64418;47.536;19.074;2022-10-26T05:25:06;100870.50;;;10.00;84.40
75794;BME280;64418;47.536;19.074;2022-10-26T05:27:51;100876.28;;;9.97;84.43
75794;BME280;64418;47.536;19.074;2022-10-26T05:30:35;100871.69;;;9.97;84.31
75794;BME280;64418;47.536;19.074;2022-10-26T05:33:20;100888.97;;;9.96;84.31
75794;BME280;64418;47.536;19.074;2022-10-26T05:36:06;100889.62;;;9.98;84.22
75794;BME280;64418;47.536;19.074;2022-10-26T05:38:50;100889.78;;;10.11;85.19
75794;BME280;64418;47.536;19.074;2022-10-26T05:41:37;100886.75;;;10.36;87.16
75794;BME280;64418;47.536;19.074;2022-10-26T05:44:24;100889.03;;;10.53;85.16
75794;BME280;64418;47.536;19.074;2022-10-26T05:47:12;100895.59;;;10.44;83.83
75794;BME280;64418;47.536;19.074;2022-10-26T05:49:57;100890.94;;;10.38;83.43
75794;BME280;64418;47.536;19.074;2022-10-26T05:52:42;100892.53;;;10.33;83.16
75794;BME280;64418;47.536;19.074;2022-10-26T05:55:27;100889.19;;;10.31;83.04
75794;BME280;64418;47.536;19.074;2022-10-26T05:58:14;100891.81;;;10.24;82.80
75794;BME280;64418;47.536;19.074;2022-10-26T06:01:09;100889.94;;;10.25;82.83
75794;BME280;64418;47.536;19.074;2022-10-26T06:04:05;100894.53;;;10.24;82.79
75794;BME280;64418;47.536;19.074;2022-10-26T06:06:59;100902.47;;;10.26;82.80
75794;BME280;64418;47.536;19.074;2022-10-26T06:09:44;100907.50;;;10.29;82.84
75794;BME280;64418;47.536;19.074;2022-10-26T06:12:38;100911.31;;;10.34;82.94
75794;BME280;64418;47.536;19.074;2022-10-26T06:15:25;100912.22;;;10.41;83.02
75794;BME280;64418;47.536;19.074;2022-10-26T06:18:18;100906.88;;;10.48;82.98
75794;BME280;64418;47.536;19.074;2022-10-26T06:21:19;100915.31;;;10.59;82.93
75794;BME280;64418;47.536;19.074;2022-10-26T06:24:11;100914.84;;;10.77;82.84
75794;BME280;64418;47.536;19.074;2022-10-26T06:27:01;100920.00;;;10.93;82.86
75794;BME280;64418;47.536;19.074;2022-10-26T06:29:55;100923.66;;;11.07;82.23
75794;BME280;64418;47.536;19.074;2022-10-26T06:32:45;100933.38;;;11.23;81.78
75794;BME280;64418;47.536;19.074;2022-10-26T06:35:34;100930.12;;;11.34;81.36
75794;BME280;64418;47.536;19.074;2022-10-26T06:38:22;100923.12;;;11.46;81.13
75794;BME280;64418;47.536;19.074;2022-10-26T06:41:07;100929.88;;;11.56;80.40
75794;BME280;64418;47.536;19.074;2022-10-26T06:43:54;100917.34;;;11.55;80.62
75794;BME280;64418;47.536;19.074;2022-10-26T06:59:07;100933.28;;;13.65;74.19
75794;BME280;64418;47.536;19.074;2022-10-26T07:01:52;100933.28;;;13.65;74.19
75794;BME280;64418;47.536;19.074;2022-10-26T07:04:36;100940.41;;;13.07;76.19
75794;BME280;64418;47.536;19.074;2022-10-26T07:07:22;100952.19;;;13.27;75.92
75794;BME280;64418;47.536;19.074;2022-10-26T07:10:08;100955.94;;;13.46;75.29
75794;BME280;64418;47.536;19.074;2022-10-26T07:12:53;100952.97;;;13.61;74.56
75794;BME280;64418;47.536;19.074;2022-10-26T07:15:42;100943.31;;;13.78;74.25
75794;BME280;64418;47.536;19.074;2022-10-26T07:18:26;100943.47;;;13.96;73.22
75794;BME280;64418;47.536;19.074;2022-10-26T07:21:13;100936.06;;;14.10;72.29
75794;BME280;64418;47.536;19.074;2022-10-26T07:23:58;100941.56;;;14.03;72.51
75794;BME280;64418;47.536;19.074;2022-10-26T07:26:42;100938.63;;;13.98;71.80
75794;BME280;64418;47.536;19.074;2022-10-26T07:29:27;100950.91;;;14.20;71.48
75794;BME280;64418;47.536;19.074;2022-10-26T07:32:13;100943.13;;;14.30;71.66
75794;BME280;64418;47.536;19.074;2022-10-26T07:34:57;100943.47;;;14.54;71.25
75794;BME280;64418;47.536;19.074;2022-10-26T07:37:41;100950.66;;;14.79;69.89
75794;BME280;64418;47.536;19.074;2022-10-26T07:40:26;100945.59;;;15.08;71.56
75794;BME280;64418;47.536;19.074;2022-10-26T07:43:14;100945.25;;;15.47;69.33
75794;BME280;64418;47.536;19.074;2022-10-26T07:45:58;100951.09;;;15.75;67.07
75794;BME280;64418;47.536;19.074;2022-10-26T07:48:44;100952.97;;;15.75;67.16
75794;BME280;64418;47.536;19.074;2022-10-26T07:51:29;100955.41;;;15.83;66.67
75794;BME280;64418;47.536;19.074;2022-10-26T07:54:14;100953.13;;;15.62;66.77
75794;BME280;64418;47.536;19.074;2022-10-26T07:56:58;100948.81;;;15.72;67.04
75794;BME280;64418;47.536;19.074;2022-10-26T07:59:43;100949.66;;;15.73;66.53
75794;BME280;64418;47.536;19.074;2022-10-26T08:02:30;100944.34;;;15.78;66.31
75794;BME280;64418;47.536;19.074;2022-10-26T08:05:19;100939.94;;;15.77;66.18
75794;BME280;64418;47.536;19.074;2022-10-26T08:08:04;100949.56;;;15.79;65.82
75794;BME280;64418;47.536;19.074;2022-10-26T08:10:49;100943.91;;;15.99;65.69
75794;BME280;64418;47.536;19.074;2022-10-26T08:13:33;100945.72;;;15.87;64.66
75794;BME280;64418;47.536;19.074;2022-10-26T08:16:19;100942.06;;;15.75;66.36
75794;BME280;64418;47.536;19.074;2022-10-26T08:19:03;100946.72;;;15.93;65.64
75794;BME280;64418;47.536;19.074;2022-10-26T08:21:49;100940.25;;;15.87;65.48
75794;BME280;64418;47.536;19.074;2022-10-26T08:24:36;100944.28;;;15.84;65.43
75794;BME280;64418;47.536;19.074;2022-10-26T08:27:21;100950.28;;;15.93;65.02
75794;BME280;64418;47.536;19.074;2022-10-26T08:30:08;100946.41;;;16.19;64.93
75794;BME280;64418;47.536;19.074;2022-10-26T08:32:58;100946.59;;;16.54;63.61
75794;BME280;64418;47.536;19.074;2022-10-26T08:35:43;100945.75;;;16.83;62.71
75794;BME280;64418;47.536;19.074;2022-10-26T08:38:31;100944.81;;;16.89;62.56
75794;BME280;64418;47.536;19.074;2022-10-26T08:41:16;100953.09;;;17.12;62.07
75794;BME280;64418;47.536;19.074;2022-10-26T08:44:14;100952.34;;;16.64;63.35
75794;BME280;64418;47.536;19.074;2022-10-26T08:47:05;100943.91;;;17.07;62.37
75794;BME280;64418;47.536;19.074;2022-10-26T08:49:54;100944.38;;;17.04;62.35
75794;BME280;64418;47.536;19.074;2022-10-26T08:52:47;100951.22;;;17.36;62.42
75794;BME280;64418;47.536;19.074;2022-10-26T08:55:42;100947.09;;;17.04;63.39
75794;BME280;64418;47.536;19.074;2022-10-26T08:58:39;100956.81;;;17.29;63.31
75794;BME280;64418;47.536;19.074;2022-10-26T09:01:25;100957.69;;;17.76;61.42
75794;BME280;64418;47.536;19.074;2022-10-26T09:04:11;100961.84;;;17.56;62.14
75794;BME280;64418;47.536;19.074;2022-10-26T09:07:04;100961.34;;;17.36;63.13
75794;BME280;64418;47.536;19.074;2022-10-26T09:09:59;100961.00;;;17.55;62.37
75794;BME280;64418;47.536;19.074;2022-10-26T09:12:53;100970.91;;;17.68;61.88
75794;BME280;64418;47.536;19.074;2022-10-26T09:15:51;100963.09;;;17.07;64.03
75794;BME280;64418;47.536;19.074;2022-10-26T09:18:47;100960.06;;;17.61;62.17
75794;BME280;64418;47.536;19.074;2022-10-26T09:21:39;100966.25;;;17.92;61.48
75794;BME280;64418;47.536;19.074;2022-10-26T09:24:30;100963.88;;;17.84;61.37
75794;BME280;64418;47.536;19.074;2022-10-26T09:27:20;100964.91;;;17.94;61.93
75794;BME280;64418;47.536;19.074;2022-10-26T09:30:16;100973.22;;;18.22;61.42
75794;BME280;64418;47.536;19.074;2022-10-26T09:33:04;100978.66;;;18.46;60.64
75794;BME280;64418;47.536;19.074;2022-10-26T09:36:00;100980.22;;;18.53;60.39
75794;BME280;64418;47.536;19.074;2022-10-26T09:38:50;100988.59;;;18.35;61.08
75794;BME280;64418;47.536;19.074;2022-10-26T09:41:43;100983.06;;;17.60;63.32
75794;BME280;64418;47.536;19.074;2022-10-26T09:44:33;100984.03;;;17.66;63.85
75794;BME280;64418;47.536;19.074;2022-10-26T09:47:34;100984.47;;;16.98;65.97
75794;BME280;64418;47.536;19.074;2022-10-26T09:50:22;100987.91;;;17.47;64.76
75794;BME280;64418;47.536;19.074;2022-10-26T09:53:09;100975.38;;;16.86;67.60
75794;BME280;64418;47.536;19.074;2022-10-26T09:56:00;100992.34;;;16.65;69.15
75794;BME280;64418;47.536;19.074;2022-10-26T09:58:50;100989.34;;;16.96;67.48
75794;BME280;64418;47.536;19.074;2022-10-26T10:01:36;100990.78;;;16.51;69.50
75794;BME280;64418;47.536;19.074;2022-10-26T10:04:22;100992.34;;;16.65;69.31
75794;BME280;64418;47.536;19.074;2022-10-26T10:07:12;100992.94;;;16.49;69.71
75794;BME280;64418;47.536;19.074;2022-10-26T10:10:07;100993.66;;;16.56;69.48
75794;BME280;64418;47.536;19.074;2022-10-26T10:12:53;100991.50;;;16.64;69.15
75794;BME280;64418;47.536;19.074;2022-10-26T10:15:37;100988.53;;;17.07;68.27
75794;BME280;64418;47.536;19.074;2022-10-26T10:18:22;100992.44;;;16.88;68.60
75794;BME280;64418;47.536;19.074;2022-10-26T10:21:09;100991.41;;;16.71;69.21
75794;BME280;64418;47.536;19.074;2022-10-26T10:23:54;100993.97;;;16.66;69.65
75794;BME280;64418;47.536;19.074;2022-10-26T10:26:55;100996.69;;;16.84;68.92
75794;BME280;64418;47.536;19.074;2022-10-26T10:29:42;100998.69;;;17.07;68.16
75794;BME280;64418;47.536;19.074;2022-10-26T10:32:30;100994.69;;;16.91;68.57
75794;BME280;64418;47.536;19.074;2022-10-26T10:35:22;100992.78;;;16.44;70.02
75794;BME280;64418;47.536;19.074;2022-10-26T10:38:14;100993.41;;;16.27;70.65
75794;BME280;64418;47.536;19.074;2022-10-26T10:41:00;100993.84;;;16.24;70.51
75794;BME280;64418;47.536;19.074;2022-10-26T10:43:46;100984.91;;;15.99;71.46
75794;BME280;64418;47.536;19.074;2022-10-26T10:46:35;100984.25;;;15.79;72.51
75794;BME280;64418;47.536;19.074;2022-10-26T10:49:22;100983.28;;;15.92;72.32
75794;BME280;64418;47.536;19.074;2022-10-26T10:52:22;100982.28;;;15.68;73.23
75794;BME280;64418;47.536;19.074;2022-10-26T10:55:17;100976.53;;;15.76;72.87
75794;BME280;64418;47.536;19.074;2022-10-26T10:58:13;100984.03;;;15.80;72.99
75794;BME280;64418;47.536;19.074;2022-10-26T11:01:00;100981.25;;;16.05;72.25
75794;BME280;64418;47.536;19.074;2022-10-26T11:04:10;100982.47;;;16.09;71.90
75794;BME280;64418;47.536;19.074;2022-10-26T11:07:03;100980.81;;;16.26;71.54
75794;BME280;64418;47.536;19.074;2022-10-26T11:09:48;100983.16;;;16.23;71.44
75794;BME280;64418;47.536;19.074;2022-10-26T11:12:47;100982.59;;;16.32;71.31
75794;BME280;64418;47.536;19.074;2022-10-26T11:15:34;100978.38;;;16.18;71.84
75794;BME280;64418;47.536;19.074;2022-10-26T11:18:25;100976.69;;;15.99;72.68
75794;BME280;64418;47.536;19.074;2022-10-26T11:21:20;100979.25;;;15.94;73.02
75794;BME280;64418;47.536;19.074;2022-10-26T11:24:12;100979.97;;;16.08;72.52
75794;BME280;64418;47.536;19.074;2022-10-26T11:27:02;100979.87;;;16.14;72.36
75794;BME280;64418;47.536;19.074;2022-10-26T11:29:53;100970.53;;;16.22;72.52
75794;BME280;64418;47.536;19.074;2022-10-26T11:32:43;100972.31;;;16.16;72.28
75794;BME280;64418;47.536;19.074;2022-10-26T11:35:34;100970.16;;;16.18;73.37
75794;BME280;64418;47.536;19.074;2022-10-26T11:38:23;100967.50;;;16.30;73.25
75794;BME280;64418;47.536;19.074;2022-10-26T11:41:18;100968.16;;;16.44;71.52
75794;BME280;64418;47.536;19.074;2022-10-26T11:44:10;100963.00;;;16.54;71.19
75794;BME280;64418;47.536;19.074;2022-10-26T11:47:03;100968.13;;;16.80;70.61
75794;BME280;64418;47.536;19.074;2022-10-26T11:49:59;100963.22;;;16.52;71.20
75794;BME280;64418;47.536;19.074;2022-10-26T11:52:50;100955.22;;;16.51;71.40
75794;BME280;64418;47.536;19.074;2022-10-26T11:55:38;100960.13;;;16.78;70.42
75794;BME280;64418;47.536;19.074;2022-10-26T11:58:24;100961.03;;;17.02;69.46
75794;BME280;64418;47.536;19.074;2022-10-26T12:01:12;100958.78;;;17.11;69.22
75794;BME280;64418;47.536;19.074;2022-10-26T12:04:00;100958.31;;;17.02;69.57
75794;BME280;64418;47.536;19.074;2022-10-26T12:06:55;100959.06;;;16.79;70.06
75794;BME280;64418;47.536;19.074;2022-10-26T12:09:43;100960.97;;;16.79;70.13
75794;BME280;64418;47.536;19.074;2022-10-26T12:12:33;100962.31;;;16.88;70.12
75794;BME280;64418;47.536;19.074;2022-10-26T12:15:28;100956.75;;;16.95;69.99
75794;BME280;64418;47.536;19.074;2022-10-26T12:18:16;100962.69;;;17.03;69.75
75794;BME280;64418;47.536;19.074;2022-10-26T12:21:06;100959.25;;;17.08;69.67
75794;BME280;64418;47.536;19.074;2022-10-26T12:23:56;100960.81;;;17.15;69.36
75794;BME280;64418;47.536;19.074;2022-10-26T12:26:50;100955.69;;;17.19;69.25
75794;BME280;64418;47.536;19.074;2022-10-26T12:29:46;100960.13;;;17.31;69.06
75794;BME280;64418;47.536;19.074;2022-10-26T12:32:50;100954.19;;;17.34;68.94
75794;BME280;64418;47.536;19.074;2022-10-26T12:35:42;100959.94;;;17.45;68.57
75794;BME280;64418;47.536;19.074;2022-10-26T12:41:54;100954.44;;;17.45;68.59
75794;BME280;64418;47.536;19.074;2022-10-26T12:45:00;100948.75;;;17.58;68.31
75794;BME280;64418;47.536;19.074;2022-10-26T12:48:02;100937.06;;;17.74;67.74
75794;BME280;64418;47.536;19.074;2022-10-26T12:50:48;100957.31;;;17.96;66.85
75794;BME280;64418;47.536;19.074;2022-10-26T12:53:32;100944.63;;;18.18;66.26
75794;BME280;64418;47.536;19.074;2022-10-26T12:56:19;100946.38;;;18.24;66.16
75794;BME280;64418;47.536;19.074;2022-10-26T12:59:18;100951.63;;;18.26;65.73
75794;BME280;64418;47.536;19.074;2022-10-26T13:05:32;100939.00;;;18.13;66.27
75794;BME280;64418;47.536;19.074;2022-10-26T13:08:19;100944.88;;;18.05;66.46
75794;BME280;64418;47.536;19.074;2022-10-26T13:11:06;100942.53;;;17.97;67.00
75794;BME280;64418;47.536;19.074;2022-10-26T13:13:59;100947.41;;;17.95;67.07
75794;BME280;64418;47.536;19.074;2022-10-26T13:16:46;100942.19;;;17.94;67.14
75794;BME280;64418;47.536;19.074;2022-10-26T13:19:37;100944.09;;;17.93;67.27
75794;BME280;64418;47.536;19.074;2022-10-26T13:22:25;100952.19;;;17.88;67.22
75794;BME280;64418;47.536;19.074;2022-10-26T13:25:20;100943.38;;;17.86;67.52
75794;BME280;64418;47.536;19.074;2022-10-26T13:28:28;100944.44;;;17.85;67.37
75794;BME280;64418;47.536;19.074;2022-10-26T13:34:26;100952.56;;;17.80;67.55
75794;BME280;64418;47.536;19.074;2022-10-26T13:37:20;100948.03;;;17.74;67.34
75794;BME280;64418;47.536;19.074;2022-10-26T13:40:09;100947.34;;;17.67;67.78
75794;BME280;64418;47.536;19.074;2022-10-26T13:42:59;100950.66;;;17.69;67.93
75794;BME280;64418;47.536;19.074;2022-10-26T13:45:52;100952.56;;;17.68;68.19
75794;BME280;64418;47.536;19.074;2022-10-26T13:48:40;100949.69;;;17.52;69.41
75794;BME280;64418;47.536;19.074;2022-10-26T13:51:38;100950.44;;;17.59;69.26
75794;BME280;64418;47.536;19.074;2022-10-26T13:54:28;100960.69;;;17.63;69.36
75794;BME280;64418;47.536;19.074;2022-10-26T13:57:18;100954.22;;;17.58;69.61
75794;BME280;64418;47.536;19.074;2022-10-26T14:00:08;100954.00;;;17.71;69.55
75794;BME280;64418;47.536;19.074;2022-10-26T14:03:10;100954.34;;;17.74;69.78
75794;BME280;64418;47.536;19.074;2022-10-26T14:05:57;100959.50;;;17.71;69.35
75794;BME280;64418;47.536;19.074;2022-10-26T14:08:43;100963.66;;;17.62;69.50
75794;BME280;64418;47.536;19.074;2022-10-26T14:11:33;100959.72;;;17.58;69.79
75794;BME280;64418;47.536;19.074;2022-10-26T14:14:21;100960.66;;;17.52;70.27
75794;BME280;64418;47.536;19.074;2022-10-26T14:17:17;100965.63;;;17.55;69.89
75794;BME280;64418;47.536;19.074;2022-10-26T14:20:03;100961.09;;;17.49;69.89
75794;BME280;64418;47.536;19.074;2022-10-26T14:22:51;100961.00;;;17.44;70.28
75794;BME280;64418;47.536;19.074;2022-10-26T14:25:35;100956.56;;;17.43;70.25
75794;BME280;64418;47.536;19.074;2022-10-26T14:28:24;100955.84;;;17.36;70.03
75794;BME280;64418;47.536;19.074;2022-10-26T14:31:17;100960.00;;;17.26;70.99
75794;BME280;64418;47.536;19.074;2022-10-26T14:34:03;100958.69;;;17.17;70.60
75794;BME280;64418;47.536;19.074;2022-10-26T14:36:50;100961.09;;;17.25;71.68
75794;BME280;64418;47.536;19.074;2022-10-26T14:39:41;100957.75;;;17.23;70.79
75794;BME280;64418;47.536;19.074;2022-10-26T14:42:29;100960.47;;;17.23;70.87
75794;BME280;64418;47.536;19.074;2022-10-26T14:45:22;100957.75;;;17.23;70.76
75794;BME280;64418;47.536;19.074;2022-10-26T14:48:20;100951.53;;;17.16;71.26
75794;BME280;64418;47.536;19.074;2022-10-26T14:51:09;100951.44;;;17.23;71.62
75794;BME280;64418;47.536;19.074;2022-10-26T14:53:56;100959.78;;;17.28;71.30
75794;BME280;64418;47.536;19.074;2022-10-26T14:56:44;100965.47;;;17.26;70.95